Keithsburg, Illinois
Current Conditions -  °F | °C
As of 8:55 AM on Sunday 21 Dec 2014 (Local Time) from KMUT Reporting Station
Overcast Overcast  
Wind Chill: 31°   Ceiling: 3100
Heat Index: 39°   Visibility: 9mi
Dew Point: 36°   Wind: 14mph
Humidity: 87%   Direction: 180°S
Pressure: 30.1"   Gusts: NA
Location:  41.1°N, 90.94°W
Report Text: KMUT 211455Z AUTO 18012KT 9SM OVC031 04/02 A3010 RMK AO2
Loading
Personal Weather Stations






























Interactive Weather Map New forecast layout! Learn more

10-Day Weather Forecast

Advertisements
Track Severe Weather on mobile